Time;durP1;ratioP1;P1;durP2;ratioP2;P2;SDS_P1;SDS_P2;PMS_P1;PMS_P2;Temp;Humidity;BMP_temperature;BMP_pressure;BME280_temperature;BME280_humidity;BME280_pressure;Samples;Min_cycle;Max_cycle;Signal;HPM_P1;HPM_P2
2022/05/12 00:00:17;;;;;;;5.78;3.42;;;;;;;;;;10354244;28;20064;-56
2022/05/12 00:05:17;;;;;;;4.05;3.75;;;;;;;;;;10354024;28;20064;-55
2022/05/12 00:10:17;;;;;;;4.72;3.42;;;;;;;;;;10348050;28;20512;-56
2022/05/12 00:15:16;;;;;;;4.32;3.45;;;;;;;;;;10355063;28;20556;-56
2022/05/12 00:20:15;;;;;;;6.35;3.33;;;;;;;;;;10356463;28;20055;-55
2022/05/12 00:25:15;;;;;;;5.90;3.35;;;;;;;;;;10363046;28;20078;-57
2022/05/12 00:30:15;;;;;;;6.35;3.90;;;;;;;;;;10361125;28;20068;-53
2022/05/12 00:35:14;;;;;;;6.00;4.35;;;;;;;;;;10358064;28;20051;-55
2022/05/12 00:40:13;;;;;;;4.93;3.70;;;;;;;;;;10363176;28;20055;-56
2022/05/12 00:45:12;;;;;;;5.80;3.30;;;;;;;;;;10361143;28;20063;-55
2022/05/12 00:50:11;;;;;;;5.50;3.97;;;;;;;;;;10355851;28;20078;-55
2022/05/12 00:55:11;;;;;;;4.22;3.80;;;;;;;;;;10361002;28;20068;-56
2022/05/12 01:00:12;;;;;;;5.70;4.10;;;;;;;;;;10361141;28;20047;-55
2022/05/12 01:05:12;;;;;;;17.35;5.10;;;;;;;;;;10360962;28;20047;-56
2022/05/12 01:10:11;;;;;;;4.43;3.60;;;;;;;;;;10355615;28;20153;-53
2022/05/12 01:15:09;;;;;;;5.25;3.47;;;;;;;;;;10360182;28;20048;-56
2022/05/12 01:20:09;;;;;;;4.70;3.55;;;;;;;;;;10360462;28;20505;-55
2022/05/12 01:25:10;;;;;;;4.65;4.00;;;;;;;;;;10359620;28;20178;-55
2022/05/12 01:30:11;;;;;;;5.70;3.55;;;;;;;;;;10359175;28;20449;-53
2022/05/12 01:35:09;;;;;;;6.32;3.45;;;;;;;;;;10359362;28;20075;-56
2022/05/12 01:40:10;;;;;;;7.22;4.55;;;;;;;;;;10359025;28;20076;-55
2022/05/12 01:45:09;;;;;;;6.78;3.80;;;;;;;;;;10358820;28;20079;-56
2022/05/12 01:50:09;;;;;;;6.10;4.28;;;;;;;;;;10358537;28;20088;-55
2022/05/12 01:55:08;;;;;;;4.22;3.83;;;;;;;;;;10358945;28;20087;-57
2022/05/12 02:00:09;;;;;;;4.45;4.05;;;;;;;;;;10358609;28;20067;-52
2022/05/12 02:05:11;;;;;;;4.57;4.00;;;;;;;;;;10356298;28;20091;-56
2022/05/12 02:10:11;;;;;;;3.75;3.38;;;;;;;;;;10353909;28;20543;-54
2022/05/12 02:15:12;;;;;;;4.43;3.83;;;;;;;;;;10358712;28;20039;-56
2022/05/12 02:20:12;;;;;;;10.35;3.80;;;;;;;;;;10359021;28;20087;-51
2022/05/12 02:25:10;;;;;;;3.53;3.15;;;;;;;;;;10358030;28;20070;-55
2022/05/12 02:30:12;;;;;;;5.30;3.70;;;;;;;;;;10357464;28;20090;-56
2022/05/12 02:35:11;;;;;;;5.53;4.35;;;;;;;;;;10353031;28;20118;-55
2022/05/12 02:40:11;;;;;;;4.68;4.03;;;;;;;;;;10357697;28;20048;-56
2022/05/12 02:45:11;;;;;;;5.63;4.05;;;;;;;;;;10356814;28;20055;-56
2022/05/12 02:50:11;;;;;;;6.57;3.65;;;;;;;;;;10357705;28;20156;-56
2022/05/12 02:55:09;;;;;;;7.85;3.80;;;;;;;;;;10357226;28;20074;-57
2022/05/12 03:00:11;;;;;;;8.07;4.00;;;;;;;;;;10355986;28;20086;-55
2022/05/12 03:05:11;;;;;;;5.05;3.95;;;;;;;;;;10356142;28;20076;-55
2022/05/12 03:10:11;;;;;;;5.13;3.95;;;;;;;;;;10355684;28;20086;-56
2022/05/12 03:15:10;;;;;;;4.78;4.00;;;;;;;;;;10356229;28;20060;-57
2022/05/12 03:20:12;;;;;;;5.68;3.92;;;;;;;;;;10354491;28;20044;-57
2022/05/12 03:25:11;;;;;;;4.88;4.20;;;;;;;;;;10351524;28;20082;-55
2022/05/12 03:30:12;;;;;;;6.03;4.00;;;;;;;;;;10355643;28;20083;-57
2022/05/12 03:35:12;;;;;;;7.43;5.28;;;;;;;;;;10354981;28;20071;-57
2022/05/12 03:40:11;;;;;;;6.20;4.63;;;;;;;;;;10352375;28;20048;-55
2022/05/12 03:45:10;;;;;;;6.28;5.18;;;;;;;;;;10356899;28;20044;-57
2022/05/12 03:50:11;;;;;;;6.28;4.63;;;;;;;;;;10354241;28;20075;-56
2022/05/12 03:55:18;;;;;;;7.22;5.95;;;;;;;;;;10357524;28;20059;-57
2022/05/12 04:00:18;;;;;;;8.02;4.25;;;;;;;;;;10361902;28;20102;-54
2022/05/12 04:05:18;;;;;;;6.72;5.53;;;;;;;;;;10362212;28;20068;-56
2022/05/12 04:10:21;;;;;;;7.10;6.30;;;;;;;;;;10360688;28;20091;-57
2022/05/12 04:15:21;;;;;;;6.00;4.85;;;;;;;;;;10362275;28;20431;-57
2022/05/12 04:20:19;;;;;;;5.57;4.43;;;;;;;;;;10361722;28;20071;-56
2022/05/12 04:25:17;;;;;;;5.93;4.75;;;;;;;;;;10361744;28;20051;-55
2022/05/12 04:30:18;;;;;;;11.05;7.18;;;;;;;;;;10360548;28;20072;-56
2022/05/12 04:35:16;;;;;;;8.00;5.28;;;;;;;;;;10360448;28;20088;-56
2022/05/12 04:40:16;;;;;;;8.88;7.75;;;;;;;;;;10360744;28;20074;-56
2022/05/12 04:45:15;;;;;;;12.15;9.25;;;;;;;;;;10361902;28;20040;-56
2022/05/12 04:50:15;;;;;;;15.93;9.27;;;;;;;;;;10358562;28;20086;-55
2022/05/12 04:55:14;;;;;;;6.82;5.13;;;;;;;;;;10361073;28;20068;-57
2022/05/12 05:00:14;;;;;;;11.05;8.77;;;;;;;;;;10359665;28;20063;-58
2022/05/12 05:05:13;;;;;;;11.55;8.93;;;;;;;;;;10355425;28;20080;-58
2022/05/12 05:10:13;;;;;;;7.95;6.18;;;;;;;;;;10359513;28;20087;-57
2022/05/12 05:15:13;;;;;;;6.95;4.63;;;;;;;;;;10355429;28;20068;-58
2022/05/12 05:20:14;;;;;;;11.43;9.35;;;;;;;;;;10355321;28;20036;-58
2022/05/12 05:25:15;;;;;;;7.75;6.80;;;;;;;;;;10358343;28;20127;-57
2022/05/12 05:30:15;;;;;;;7.55;6.03;;;;;;;;;;10353992;28;20071;-57
2022/05/12 05:35:13;;;;;;;9.80;4.10;;;;;;;;;;10354307;28;20076;-57
2022/05/12 05:40:13;;;;;;;12.27;5.07;;;;;;;;;;10353307;28;20067;-58
2022/05/12 05:45:15;;;;;;;9.73;5.00;;;;;;;;;;10355584;28;20075;-59
2022/05/12 05:50:14;;;;;;;7.88;6.88;;;;;;;;;;10352564;28;20064;-58
2022/05/12 05:55:13;;;;;;;19.33;10.52;;;;;;;;;;10356874;28;20071;-56
2022/05/12 06:00:14;;;;;;;5.60;4.40;;;;;;;;;;10356088;28;20071;-58
2022/05/12 06:05:12;;;;;;;9.50;7.07;;;;;;;;;;10355630;28;20080;-56
2022/05/12 06:10:10;;;;;;;8.82;4.03;;;;;;;;;;10353639;28;20082;-57
2022/05/12 06:15:09;;;;;;;4.72;3.90;;;;;;;;;;10354998;28;20545;-59
2022/05/12 06:20:11;;;;;;;6.75;4.47;;;;;;;;;;10353410;28;20091;-55
2022/05/12 06:25:10;;;;;;;7.18;5.30;;;;;;;;;;10351515;28;20072;-58
2022/05/12 06:30:11;;;;;;;5.55;4.70;;;;;;;;;;10352086;28;20099;-58
2022/05/12 06:35:13;;;;;;;10.10;5.30;;;;;;;;;;10355048;28;20596;-58
2022/05/12 06:40:11;;;;;;;11.40;5.25;;;;;;;;;;10355216;28;20524;-57
2022/05/12 06:45:11;;;;;;;4.80;4.30;;;;;;;;;;10354862;28;20090;-57
2022/05/12 06:50:10;;;;;;;7.60;4.10;;;;;;;;;;10352886;28;20072;-57
2022/05/12 06:55:11;;;;;;;8.80;5.32;;;;;;;;;;10352964;28;20075;-59
2022/05/12 07:00:09;;;;;;;6.90;4.60;;;;;;;;;;10355255;28;20080;-57
2022/05/12 07:05:09;;;;;;;24.58;17.60;;;;;;;;;;10355944;28;20091;-55
2022/05/12 07:10:08;;;;;;;9.27;6.82;;;;;;;;;;10355455;28;20094;-58
2022/05/12 07:15:09;;;;;;;14.30;8.55;;;;;;;;;;10355530;28;20048;-58
2022/05/12 07:36:00;;;;;;;10.88;5.78;;;;;;;;;;10355501;28;20072;-58
2022/05/12 07:40:58;;;;;;;8.93;5.03;;;;;;;;;;10354508;28;20048;-58
2022/05/12 07:45:58;;;;;;;9.77;5.32;;;;;;;;;;10354843;28;20064;-58
2022/05/12 07:50:56;;;;;;;5.90;4.63;;;;;;;;;;10354707;28;20123;-57
2022/05/12 07:55:54;;;;;;;6.00;3.78;;;;;;;;;;10354484;28;20068;-58
2022/05/12 08:00:53;;;;;;;6.40;4.10;;;;;;;;;;10354448;28;20060;-59
2022/05/12 08:05:53;;;;;;;8.98;3.55;;;;;;;;;;10352821;28;20048;-58
2022/05/12 08:10:51;;;;;;;5.50;3.75;;;;;;;;;;10349159;28;20088;-56
2022/05/12 08:15:50;;;;;;;8.18;3.90;;;;;;;;;;10353353;28;20060;-57
2022/05/12 08:20:49;;;;;;;7.72;4.40;;;;;;;;;;10348127;28;20071;-59
2022/05/12 08:25:50;;;;;;;4.57;3.85;;;;;;;;;;10350081;28;20094;-58
2022/05/12 08:30:55;;;;;;;6.75;4.15;;;;;;;;;;10350999;28;20076;-58
2022/05/12 08:35:53;;;;;;;7.22;3.67;;;;;;;;;;10346192;28;20465;-58
2022/05/12 08:41:00;;;;;;;8.55;3.78;;;;;;;;;;10356688;28;20070;-58
2022/05/12 08:46:02;;;;;;;7.20;4.18;;;;;;;;;;10362120;28;20055;-58
2022/05/12 08:51:01;;;;;;;7.63;3.75;;;;;;;;;;10362067;28;20079;-59
2022/05/12 08:56:01;;;;;;;8.02;3.88;;;;;;;;;;10359297;28;20086;-58
2022/05/12 09:01:01;;;;;;;12.80;3.97;;;;;;;;;;10358779;28;20079;-58
2022/05/12 09:06:06;;;;;;;6.97;3.38;;;;;;;;;;10361519;28;20048;-58
2022/05/12 09:11:07;;;;;;;7.18;3.42;;;;;;;;;;10361222;28;20080;-58
2022/05/12 09:16:11;;;;;;;7.80;3.63;;;;;;;;;;10359556;28;20080;-59
2022/05/12 09:21:09;;;;;;;;;;;;;;;;;;10358307;28;20393;-58
2022/05/12 09:26:26;;;;;;;6.65;3.15;;;;;;;;;;10359844;28;20319;-58
2022/05/12 09:31:26;;;;;;;5.95;3.38;;;;;;;;;;10357057;28;20529;-58
2022/05/12 09:36:27;;;;;;;4.88;2.90;;;;;;;;;;10359224;28;20075;-59
2022/05/12 09:41:32;;;;;;;7.90;3.17;;;;;;;;;;10359126;28;20509;-56
2022/05/12 09:46:32;;;;;;;7.43;3.10;;;;;;;;;;10355043;28;20243;-58
2022/05/12 09:51:32;;;;;;;7.53;3.25;;;;;;;;;;10358529;28;20072;-58
2022/05/12 09:56:32;;;;;;;5.78;3.15;;;;;;;;;;10353069;28;20075;-58
2022/05/12 10:01:32;;;;;;;5.20;2.60;;;;;;;;;;10352156;28;20047;-58
2022/05/12 10:11:49;;;;;;;3.00;2.25;;;;;;;;;;10358983;28;20087;-59
2022/05/12 10:16:50;;;;;;;10.95;2.80;;;;;;;;;;10357134;28;20674;-58
2022/05/12 10:21:51;;;;;;;6.93;3.25;;;;;;;;;;10357553;28;20052;-58
2022/05/12 10:26:51;;;;;;;5.38;4.47;;;;;;;;;;10358738;28;20071;-58
2022/05/12 10:31:55;;;;;;;6.15;3.08;;;;;;;;;;10358004;28;20087;-58
2022/05/12 10:37:01;;;;;;;6.43;3.35;;;;;;;;;;10357256;28;20071;-58
2022/05/12 10:42:11;;;;;;;5.07;2.38;;;;;;;;;;10357328;28;20084;-58
2022/05/12 10:47:17;;;;;;;8.48;2.33;;;;;;;;;;10356943;28;20076;-58
2022/05/12 10:52:20;;;;;;;7.25;2.85;;;;;;;;;;10356521;28;20463;-58
2022/05/12 10:57:25;;;;;;;6.10;2.30;;;;;;;;;;10356670;28;20079;-59
2022/05/12 11:02:31;;;;;;;7.72;2.15;;;;;;;;;;10355773;28;20473;-59
2022/05/12 11:07:32;;;;;;;3.40;2.35;;;;;;;;;;10350476;28;20084;-59
2022/05/12 11:12:32;;;;;;;6.53;2.50;;;;;;;;;;10349994;28;20092;-58
2022/05/12 11:17:35;;;;;;;3.75;2.33;;;;;;;;;;10355920;28;20071;-59
2022/05/12 11:22:42;;;;;;;5.93;2.70;;;;;;;;;;10355941;28;20048;-58
2022/05/12 11:27:46;;;;;;;5.30;3.05;;;;;;;;;;10357128;28;20051;-59
2022/05/12 11:32:52;;;;;;;5.00;2.67;;;;;;;;;;10356992;28;20076;-58
2022/05/12 11:37:59;;;;;;;3.90;2.30;;;;;;;;;;10354986;28;20083;-58
2022/05/12 11:48:25;;;;;;;4.25;2.25;;;;;;;;;;10337547;28;20067;-58
2022/05/12 11:53:27;;;;;;;7.65;2.60;;;;;;;;;;10354180;28;20092;-59
2022/05/12 11:58:32;;;;;;;3.65;1.95;;;;;;;;;;10354954;28;20075;-58
2022/05/12 12:03:46;;;;;;;5.35;2.15;;;;;;;;;;10355473;28;20068;-58
2022/05/12 12:08:47;;;;;;;4.53;2.85;;;;;;;;;;10355392;28;20071;-59
2022/05/12 12:13:45;;;;;;;3.65;1.88;;;;;;;;;;10354044;28;20083;-59
2022/05/12 12:18:52;;;;;;;11.80;6.07;;;;;;;;;;10362421;28;20420;-58
2022/05/12 12:23:59;;;;;;;3.42;2.45;;;;;;;;;;10363422;28;20059;-58
2022/05/12 12:29:04;;;;;;;3.58;2.75;;;;;;;;;;10363759;28;20063;-58
2022/05/12 12:34:11;;;;;;;7.85;2.20;;;;;;;;;;10362096;28;20079;-58
2022/05/12 12:39:12;;;;;;;3.38;2.53;;;;;;;;;;10362431;28;20052;-58
2022/05/12 12:44:14;;;;;;;3.08;2.40;;;;;;;;;;10362390;28;20075;-59
2022/05/12 12:49:18;;;;;;;3.97;2.08;;;;;;;;;;10360336;28;20044;-57
2022/05/12 12:59:52;;;;;;;5.32;2.50;;;;;;;;;;10361087;28;20044;-58
2022/05/12 13:04:54;;;;;;;3.63;2.33;;;;;;;;;;10356803;28;20064;-59
2022/05/12 13:09:55;;;;;;;3.15;1.60;;;;;;;;;;10355681;28;20060;-59
2022/05/12 13:14:54;;;;;;;4.22;2.58;;;;;;;;;;10361203;28;20071;-59
2022/05/12 13:19:52;;;;;;;3.67;2.25;;;;;;;;;;10360797;28;20060;-59
2022/05/12 13:24:50;;;;;;;3.13;2.75;;;;;;;;;;10361383;28;20469;-59
2022/05/12 13:29:50;;;;;;;2.80;1.80;;;;;;;;;;10361182;28;20474;-59
2022/05/12 13:34:53;;;;;;;3.55;2.40;;;;;;;;;;10352734;28;20509;-58
2022/05/12 13:39:52;;;;;;;4.53;2.60;;;;;;;;;;10359639;28;20083;-58
2022/05/12 13:44:54;;;;;;;7.72;3.47;;;;;;;;;;10359723;28;20081;-59
2022/05/12 13:49:53;;;;;;;8.93;3.00;;;;;;;;;;10359040;28;20410;-58
2022/05/12 13:55:03;;;;;;;6.78;2.58;;;;;;;;;;10359241;28;20059;-59
2022/05/12 14:00:14;;;;;;;6.38;2.53;;;;;;;;;;10352177;28;20083;-59
2022/05/12 14:05:14;;;;;;;4.03;2.67;;;;;;;;;;10360321;28;20468;-59
2022/05/12 14:10:15;;;;;;;3.72;2.70;;;;;;;;;;10359164;28;20056;-58
2022/05/12 14:20:47;;;;;;;3.97;2.63;;;;;;;;;;10358969;28;20078;-59
2022/05/12 14:25:46;;;;;;;3.55;2.22;;;;;;;;;;10354180;28;20060;-58
2022/05/12 14:30:45;;;;;;;4.47;2.35;;;;;;;;;;10350990;28;20064;-58
2022/05/12 14:35:44;;;;;;;5.80;2.97;;;;;;;;;;10358180;28;20508;-59
2022/05/12 14:40:42;;;;;;;2.85;2.25;;;;;;;;;;10356776;28;20071;-59
2022/05/12 14:45:40;;;;;;;5.32;2.28;;;;;;;;;;10356441;28;20071;-59
2022/05/12 14:50:40;;;;;;;2.47;2.28;;;;;;;;;;10356375;28;20076;-59
2022/05/12 14:55:39;;;;;;;5.00;2.80;;;;;;;;;;10356313;28;20063;-59
2022/05/12 15:00:38;;;;;;;4.63;2.50;;;;;;;;;;10356052;28;20051;-59
2022/05/12 15:05:37;;;;;;;9.15;5.85;;;;;;;;;;10356112;28;20565;-59
2022/05/12 15:10:36;;;;;;;5.40;3.88;;;;;;;;;;10355477;28;20064;-59
2022/05/12 15:15:35;;;;;;;9.00;4.57;;;;;;;;;;10356028;28;20090;-59
2022/05/12 15:20:33;;;;;;;9.13;3.95;;;;;;;;;;10355462;28;20047;-59
2022/05/12 15:25:32;;;;;;;7.72;3.78;;;;;;;;;;10355863;28;20089;-59
2022/05/12 15:30:31;;;;;;;5.40;4.43;;;;;;;;;;10355419;28;20083;-58
2022/05/12 15:35:30;;;;;;;3.13;2.83;;;;;;;;;;10354807;28;20082;-58
2022/05/12 15:40:28;;;;;;;4.07;2.92;;;;;;;;;;10354691;28;20079;-58
2022/05/12 15:45:27;;;;;;;5.05;2.63;;;;;;;;;;10354889;28;20090;-59
2022/05/12 15:50:29;;;;;;;3.03;2.30;;;;;;;;;;10358976;28;20040;-58
2022/05/12 15:55:27;;;;;;;5.10;2.70;;;;;;;;;;10359303;28;20091;-58
2022/05/12 16:00:26;;;;;;;7.22;3.20;;;;;;;;;;10363203;28;20067;-58
2022/05/12 16:05:26;;;;;;;3.28;2.72;;;;;;;;;;10362992;28;20082;-59
2022/05/12 16:10:24;;;;;;;4.75;2.30;;;;;;;;;;10362747;28;20521;-58
2022/05/12 16:15:26;;;;;;;6.93;3.58;;;;;;;;;;10362304;28;20169;-58
2022/05/12 16:20:26;;;;;;;5.65;4.75;;;;;;;;;;10362251;28;20079;-63
2022/05/12 16:25:25;;;;;;;8.43;2.58;;;;;;;;;;10362062;28;20047;-58
2022/05/12 16:30:26;;;;;;;8.43;2.40;;;;;;;;;;10362289;28;20488;-58
2022/05/12 16:35:26;;;;;;;11.52;4.97;;;;;;;;;;10361540;28;20488;-58
2022/05/12 16:40:25;;;;;;;10.13;3.75;;;;;;;;;;10360902;28;20537;-58
2022/05/12 16:45:23;;;;;;;12.10;4.93;;;;;;;;;;10361427;28;20048;-58
2022/05/12 16:50:21;;;;;;;12.68;5.65;;;;;;;;;;10360939;28;20044;-58
2022/05/12 16:55:21;;;;;;;10.82;5.30;;;;;;;;;;10361460;28;20107;-57
2022/05/12 17:00:21;;;;;;;20.58;15.80;;;;;;;;;;10359428;28;20071;-58
2022/05/12 17:05:19;;;;;;;16.35;14.60;;;;;;;;;;10360307;28;20036;-57
2022/05/12 17:10:18;;;;;;;24.10;21.73;;;;;;;;;;10360215;28;20529;-58
2022/05/12 17:15:18;;;;;;;32.85;27.42;;;;;;;;;;10360724;28;20094;-58
2022/05/12 17:20:17;;;;;;;18.65;14.07;;;;;;;;;;10360260;28;20063;-56
2022/05/12 17:25:16;;;;;;;42.55;38.05;;;;;;;;;;10361604;28;20070;-58
2022/05/12 17:30:14;;;;;;;35.85;32.00;;;;;;;;;;10360600;28;20063;-57
2022/05/12 17:35:15;;;;;;;33.53;30.00;;;;;;;;;;10355908;28;20067;-58
2022/05/12 17:40:14;;;;;;;42.20;37.90;;;;;;;;;;10355281;28;20087;-58
2022/05/12 17:45:14;;;;;;;34.50;30.67;;;;;;;;;;10355118;28;20293;-59
2022/05/12 17:50:13;;;;;;;49.60;44.33;;;;;;;;;;10354306;28;20076;-59
2022/05/12 17:55:13;;;;;;;33.80;30.33;;;;;;;;;;10354125;28;20079;-58
2022/05/12 18:00:14;;;;;;;35.08;31.48;;;;;;;;;;10354122;28;20052;-58
2022/05/12 18:05:13;;;;;;;21.73;19.02;;;;;;;;;;10353071;28;20043;-57
2022/05/12 18:10:14;;;;;;;39.55;35.38;;;;;;;;;;10358271;28;20453;-58
2022/05/12 18:15:14;;;;;;;19.92;15.05;;;;;;;;;;10352982;28;20086;-56
2022/05/12 18:20:16;;;;;;;13.55;11.23;;;;;;;;;;10357267;28;20036;-58
2022/05/12 18:25:15;;;;;;;13.57;12.23;;;;;;;;;;10353444;28;20475;-58
2022/05/12 18:30:15;;;;;;;18.65;16.13;;;;;;;;;;10359296;28;20044;-58
2022/05/12 18:35:14;;;;;;;18.60;16.45;;;;;;;;;;10357834;28;20071;-58
2022/05/12 18:40:15;;;;;;;20.27;18.17;;;;;;;;;;10357317;28;20087;-59
2022/05/12 18:45:15;;;;;;;16.02;12.80;;;;;;;;;;10352796;28;20071;-58
2022/05/12 18:50:15;;;;;;;7.38;4.50;;;;;;;;;;10352931;28;20044;-56
2022/05/12 18:55:13;;;;;;;13.25;10.68;;;;;;;;;;10352062;28;20531;-58
2022/05/12 19:00:13;;;;;;;7.03;5.20;;;;;;;;;;10353261;28;20048;-58
2022/05/12 19:05:13;;;;;;;11.57;9.77;;;;;;;;;;10357680;28;20044;-58
2022/05/12 19:10:13;;;;;;;8.82;7.55;;;;;;;;;;10355114;28;20090;-58
2022/05/12 19:15:13;;;;;;;9.88;4.20;;;;;;;;;;10346285;28;20076;-58
2022/05/12 19:20:12;;;;;;;3.58;2.80;;;;;;;;;;10353314;28;20079;-54
2022/05/12 19:25:13;;;;;;;6.13;3.35;;;;;;;;;;10352384;28;20607;-57
2022/05/12 19:30:14;;;;;;;5.35;2.90;;;;;;;;;;10352475;28;20067;-60
2022/05/12 19:35:13;;;;;;;6.05;3.30;;;;;;;;;;10353989;28;20070;-58
2022/05/12 19:40:15;;;;;;;4.38;2.50;;;;;;;;;;10354113;28;20079;-58
2022/05/12 19:45:15;;;;;;;5.45;2.70;;;;;;;;;;10354716;28;20070;-51
2022/05/12 19:50:14;;;;;;;6.85;2.70;;;;;;;;;;10353989;28;20461;-57
2022/05/12 19:55:14;;;;;;;4.90;2.72;;;;;;;;;;10349589;28;20169;-57
2022/05/12 20:00:14;;;;;;;4.65;2.60;;;;;;;;;;10352430;28;20437;-55
2022/05/12 20:05:13;;;;;;;3.35;2.40;;;;;;;;;;10352991;28;20472;-58
2022/05/12 20:10:12;;;;;;;6.75;2.33;;;;;;;;;;10350506;28;20087;-56
2022/05/12 20:15:14;;;;;;;2.75;2.40;;;;;;;;;;10348383;28;20469;-57
2022/05/12 20:20:13;;;;;;;5.32;3.10;;;;;;;;;;10349526;28;20525;-57
2022/05/12 20:25:13;;;;;;;3.95;2.92;;;;;;;;;;10349223;28;20045;-58
2022/05/12 20:30:14;;;;;;;5.43;2.95;;;;;;;;;;10349188;28;20671;-57
2022/05/12 20:35:14;;;;;;;3.35;2.15;;;;;;;;;;10352617;28;20517;-57
2022/05/12 20:40:14;;;;;;;3.22;2.55;;;;;;;;;;10357316;28;20052;-58
2022/05/12 20:45:59;;;;;;;5.10;2.20;;;;;;;;;;10357534;28;20068;-58
2022/05/12 20:50:33;;;;;;;2.72;2.13;;;;;;;;;;10358491;28;20087;-57
2022/05/12 20:55:32;;;;;;;4.13;2.90;;;;;;;;;;10360177;28;20087;-57
2022/05/12 21:00:32;;;;;;;5.40;2.22;;;;;;;;;;10359876;28;20075;-56
2022/05/12 21:05:31;;;;;;;2.42;2.20;;;;;;;;;;10360308;28;20413;-57
2022/05/12 21:10:29;;;;;;;3.45;2.10;;;;;;;;;;10351823;28;20079;-55
2022/05/12 21:15:28;;;;;;;3.00;2.28;;;;;;;;;;10356980;28;20071;-57
2022/05/12 21:20:27;;;;;;;7.38;2.28;;;;;;;;;;10358707;28;20072;-54
2022/05/12 21:25:26;;;;;;;4.38;2.35;;;;;;;;;;10358307;28;20072;-56
2022/05/12 21:30:24;;;;;;;8.40;2.70;;;;;;;;;;10359411;28;20082;-58
2022/05/12 21:35:24;;;;;;;2.35;1.95;;;;;;;;;;10352629;28;20079;-58
2022/05/12 21:40:24;;;;;;;2.78;2.47;;;;;;;;;;10359357;28;20051;-59
2022/05/12 21:45:43;;;;;;;2.70;2.10;;;;;;;;;;10358666;28;20036;-55
2022/05/12 21:50:42;;;;;;;8.98;3.08;;;;;;;;;;10358604;28;20090;-58
2022/05/12 21:55:42;;;;;;;3.05;2.72;;;;;;;;;;10358392;28;20076;-57
2022/05/12 22:05:59;;;;;;;3.30;2.15;;;;;;;;;;10358489;28;20077;-56
2022/05/12 22:10:58;;;;;;;2.65;2.40;;;;;;;;;;10357823;28;20466;-58
2022/05/12 22:15:57;;;;;;;2.83;2.20;;;;;;;;;;10357752;28;20072;-58
2022/05/12 22:20:55;;;;;;;4.47;2.63;;;;;;;;;;10357536;28;20044;-57
2022/05/12 22:25:53;;;;;;;3.15;2.35;;;;;;;;;;10357648;28;20333;-56
2022/05/12 22:30:53;;;;;;;2.30;2.10;;;;;;;;;;10356961;28;20508;-58
2022/05/12 22:35:51;;;;;;;2.53;2.33;;;;;;;;;;10356909;28;20102;-55
2022/05/12 22:40:49;;;;;;;4.75;2.38;;;;;;;;;;10357557;28;20070;-58
2022/05/12 22:45:48;;;;;;;3.30;2.05;;;;;;;;;;10357526;28;20049;-58
2022/05/12 22:50:47;;;;;;;3.25;2.10;;;;;;;;;;10357420;28;20067;-57
2022/05/12 22:55:45;;;;;;;3.05;2.55;;;;;;;;;;10356168;28;20072;-58
2022/05/12 23:00:44;;;;;;;3.65;2.40;;;;;;;;;;10356831;28;20520;-57
2022/05/12 23:05:42;;;;;;;2.33;2.13;;;;;;;;;;10356700;28;20106;-56
2022/05/12 23:10:42;;;;;;;3.10;2.50;;;;;;;;;;10355428;28;20226;-57
2022/05/12 23:15:40;;;;;;;4.00;2.70;;;;;;;;;;10352260;28;20086;-57
2022/05/12 23:25:56;;;;;;;3.17;2.10;;;;;;;;;;10355611;28;20070;-56
2022/05/12 23:30:54;;;;;;;3.05;2.50;;;;;;;;;;10356319;28;20040;-55
2022/05/12 23:35:53;;;;;;;4.65;2.78;;;;;;;;;;10356565;28;20473;-57
2022/05/12 23:41:12;;;;;;;6.07;2.85;;;;;;;;;;10350524;28;20060;-57
2022/05/12 23:46:11;;;;;;;3.75;2.25;;;;;;;;;;10355147;28;20075;-55
2022/05/12 23:51:10;;;;;;;4.38;2.53;;;;;;;;;;10349714;28;20434;-56
2022/05/12 23:56:08;;;;;;;5.65;3.50;;;;;;;;;;10354661;28;20497;-57
